sensor_id;sensor_type;location;lat;lon;timestamp;P1;durP1;ratioP1;P2;durP2;ratioP2
44606;SDS011;30315;46.072;14.474;2023-02-01T00:02:15;36.85;;;22.90;;
44606;SDS011;30315;46.072;14.474;2023-02-01T00:04:42;38.90;;;23.85;;
44606;SDS011;30315;46.072;14.474;2023-02-01T00:07:09;39.45;;;22.42;;
44606;SDS011;30315;46.072;14.474;2023-02-01T00:09:39;42.75;;;24.38;;
44606;SDS011;30315;46.072;14.474;2023-02-01T00:12:06;38.40;;;23.40;;
44606;SDS011;30315;46.072;14.474;2023-02-01T00:14:33;41.47;;;23.10;;
44606;SDS011;30315;46.072;14.474;2023-02-01T00:17:05;40.47;;;23.65;;
44606;SDS011;30315;46.072;14.474;2023-02-01T00:19:35;41.60;;;24.05;;
44606;SDS011;30315;46.072;14.474;2023-02-01T00:22:02;33.67;;;20.15;;
44606;SDS011;30315;46.072;14.474;2023-02-01T00:24:29;36.75;;;22.45;;
44606;SDS011;30315;46.072;14.474;2023-02-01T00:26:56;29.88;;;19.80;;
44606;SDS011;30315;46.072;14.474;2023-02-01T00:29:23;31.63;;;19.75;;
44606;SDS011;30315;46.072;14.474;2023-02-01T00:31:51;33.80;;;20.67;;
44606;SDS011;30315;46.072;14.474;2023-02-01T00:34:18;31.80;;;20.00;;
44606;SDS011;30315;46.072;14.474;2023-02-01T00:36:46;32.13;;;20.88;;
44606;SDS011;30315;46.072;14.474;2023-02-01T00:39:13;33.38;;;19.77;;
44606;SDS011;30315;46.072;14.474;2023-02-01T00:41:41;33.95;;;20.42;;
44606;SDS011;30315;46.072;14.474;2023-02-01T00:44:08;30.88;;;18.58;;
44606;SDS011;30315;46.072;14.474;2023-02-01T00:46:35;29.05;;;19.23;;
44606;SDS011;30315;46.072;14.474;2023-02-01T00:49:02;31.15;;;19.33;;
44606;SDS011;30315;46.072;14.474;2023-02-01T00:51:30;33.67;;;21.17;;
44606;SDS011;30315;46.072;14.474;2023-02-01T00:53:57;33.17;;;19.67;;
44606;SDS011;30315;46.072;14.474;2023-02-01T00:56:24;29.27;;;18.50;;
44606;SDS011;30315;46.072;14.474;2023-02-01T00:58:53;32.10;;;19.00;;
44606;SDS011;30315;46.072;14.474;2023-02-01T01:01:22;31.02;;;19.38;;
44606;SDS011;30315;46.072;14.474;2023-02-01T01:03:51;31.17;;;18.60;;
44606;SDS011;30315;46.072;14.474;2023-02-01T01:06:28;29.60;;;18.67;;
44606;SDS011;30315;46.072;14.474;2023-02-01T01:08:57;32.65;;;19.30;;
44606;SDS011;30315;46.072;14.474;2023-02-01T01:11:26;31.65;;;18.70;;
44606;SDS011;30315;46.072;14.474;2023-02-01T01:13:55;33.45;;;19.60;;
44606;SDS011;30315;46.072;14.474;2023-02-01T01:16:25;33.70;;;20.70;;
44606;SDS011;30315;46.072;14.474;2023-02-01T01:21:21;34.65;;;20.10;;
44606;SDS011;30315;46.072;14.474;2023-02-01T01:23:48;31.83;;;20.13;;
44606;SDS011;30315;46.072;14.474;2023-02-01T01:26:23;30.10;;;19.25;;
44606;SDS011;30315;46.072;14.474;2023-02-01T01:28:51;31.17;;;19.17;;
44606;SDS011;30315;46.072;14.474;2023-02-01T01:31:19;32.58;;;20.33;;
44606;SDS011;30315;46.072;14.474;2023-02-01T01:33:53;35.10;;;20.52;;
44606;SDS011;30315;46.072;14.474;2023-02-01T01:36:22;36.00;;;21.13;;
44606;SDS011;30315;46.072;14.474;2023-02-01T01:38:50;37.25;;;22.55;;
44606;SDS011;30315;46.072;14.474;2023-02-01T01:41:20;37.95;;;22.42;;
44606;SDS011;30315;46.072;14.474;2023-02-01T01:46:26;35.92;;;22.40;;
44606;SDS011;30315;46.072;14.474;2023-02-01T01:49:11;38.22;;;22.23;;
44606;SDS011;30315;46.072;14.474;2023-02-01T01:51:52;34.08;;;21.67;;
44606;SDS011;30315;46.072;14.474;2023-02-01T01:57:01;33.22;;;20.80;;
44606;SDS011;30315;46.072;14.474;2023-02-01T01:59:33;33.22;;;21.02;;
44606;SDS011;30315;46.072;14.474;2023-02-01T02:02:04;34.55;;;20.95;;
44606;SDS011;30315;46.072;14.474;2023-02-01T02:04:31;35.58;;;21.45;;
44606;SDS011;30315;46.072;14.474;2023-02-01T02:07:04;37.35;;;22.15;;
44606;SDS011;30315;46.072;14.474;2023-02-01T02:09:36;33.20;;;21.17;;
44606;SDS011;30315;46.072;14.474;2023-02-01T02:12:04;34.08;;;20.02;;
44606;SDS011;30315;46.072;14.474;2023-02-01T02:14:31;37.63;;;22.25;;
44606;SDS011;30315;46.072;14.474;2023-02-01T02:25:41;31.65;;;19.40;;
44606;SDS011;30315;46.072;14.474;2023-02-01T02:28:29;29.65;;;18.58;;
44606;SDS011;30315;46.072;14.474;2023-02-01T02:34:16;30.83;;;19.60;;
44606;SDS011;30315;46.072;14.474;2023-02-01T02:42:32;33.47;;;18.75;;
44606;SDS011;30315;46.072;14.474;2023-02-01T02:45:29;30.15;;;18.30;;
44606;SDS011;30315;46.072;14.474;2023-02-01T02:48:45;30.63;;;18.40;;
44606;SDS011;30315;46.072;14.474;2023-02-01T02:56:56;29.38;;;17.83;;
44606;SDS011;30315;46.072;14.474;2023-02-01T02:59:44;25.70;;;17.33;;
44606;SDS011;30315;46.072;14.474;2023-02-01T03:02:33;28.42;;;17.65;;
44606;SDS011;30315;46.072;14.474;2023-02-01T03:05:20;27.85;;;17.17;;
44606;SDS011;30315;46.072;14.474;2023-02-01T03:13:00;29.08;;;17.52;;
44606;SDS011;30315;46.072;14.474;2023-02-01T03:15:36;27.50;;;17.95;;
44606;SDS011;30315;46.072;14.474;2023-02-01T03:18:30;34.28;;;20.38;;
44606;SDS011;30315;46.072;14.474;2023-02-01T03:21:06;34.53;;;19.95;;
44606;SDS011;30315;46.072;14.474;2023-02-01T03:23:37;29.50;;;18.60;;
44606;SDS011;30315;46.072;14.474;2023-02-01T03:26:08;32.55;;;20.48;;
44606;SDS011;30315;46.072;14.474;2023-02-01T03:28:39;32.80;;;19.88;;
44606;SDS011;30315;46.072;14.474;2023-02-01T03:31:11;31.15;;;20.15;;
44606;SDS011;30315;46.072;14.474;2023-02-01T03:33:39;31.67;;;19.63;;
44606;SDS011;30315;46.072;14.474;2023-02-01T03:36:13;32.38;;;18.88;;
44606;SDS011;30315;46.072;14.474;2023-02-01T03:39:02;28.05;;;18.83;;
44606;SDS011;30315;46.072;14.474;2023-02-01T03:44:26;33.28;;;19.73;;
44606;SDS011;30315;46.072;14.474;2023-02-01T03:49:32;27.70;;;18.77;;
44606;SDS011;30315;46.072;14.474;2023-02-01T03:52:05;29.25;;;18.25;;
44606;SDS011;30315;46.072;14.474;2023-02-01T03:54:36;33.10;;;20.27;;
44606;SDS011;30315;46.072;14.474;2023-02-01T03:57:05;31.02;;;19.25;;
44606;SDS011;30315;46.072;14.474;2023-02-01T03:59:39;29.52;;;18.85;;
44606;SDS011;30315;46.072;14.474;2023-02-01T04:02:07;31.98;;;19.45;;
44606;SDS011;30315;46.072;14.474;2023-02-01T04:04:35;28.90;;;18.92;;
44606;SDS011;30315;46.072;14.474;2023-02-01T04:07:04;29.80;;;19.13;;
44606;SDS011;30315;46.072;14.474;2023-02-01T04:09:31;33.10;;;20.88;;
44606;SDS011;30315;46.072;14.474;2023-02-01T04:11:58;33.92;;;20.00;;
44606;SDS011;30315;46.072;14.474;2023-02-01T04:14:25;31.25;;;19.52;;
44606;SDS011;30315;46.072;14.474;2023-02-01T04:16:52;30.75;;;19.58;;
44606;SDS011;30315;46.072;14.474;2023-02-01T04:19:19;30.10;;;18.90;;
44606;SDS011;30315;46.072;14.474;2023-02-01T04:21:46;26.45;;;18.15;;
44606;SDS011;30315;46.072;14.474;2023-02-01T04:24:14;31.92;;;20.25;;
44606;SDS011;30315;46.072;14.474;2023-02-01T04:26:40;31.52;;;19.30;;
44606;SDS011;30315;46.072;14.474;2023-02-01T04:29:08;33.95;;;19.77;;
44606;SDS011;30315;46.072;14.474;2023-02-01T04:31:36;29.80;;;20.33;;
44606;SDS011;30315;46.072;14.474;2023-02-01T04:34:03;31.90;;;19.75;;
44606;SDS011;30315;46.072;14.474;2023-02-01T04:36:30;34.60;;;20.20;;
44606;SDS011;30315;46.072;14.474;2023-02-01T04:38:57;32.83;;;20.33;;
44606;SDS011;30315;46.072;14.474;2023-02-01T04:41:24;30.67;;;19.83;;
44606;SDS011;30315;46.072;14.474;2023-02-01T04:43:56;30.48;;;20.33;;
44606;SDS011;30315;46.072;14.474;2023-02-01T04:46:23;31.15;;;19.58;;
44606;SDS011;30315;46.072;14.474;2023-02-01T04:48:50;29.80;;;21.08;;
44606;SDS011;30315;46.072;14.474;2023-02-01T04:51:17;32.33;;;20.63;;
44606;SDS011;30315;46.072;14.474;2023-02-01T04:53:44;30.95;;;19.75;;
44606;SDS011;30315;46.072;14.474;2023-02-01T04:56:12;36.58;;;19.75;;
44606;SDS011;30315;46.072;14.474;2023-02-01T04:58:39;32.38;;;19.75;;
44606;SDS011;30315;46.072;14.474;2023-02-01T05:01:06;34.22;;;20.35;;
44606;SDS011;30315;46.072;14.474;2023-02-01T05:03:34;32.78;;;20.63;;
44606;SDS011;30315;46.072;14.474;2023-02-01T05:06:02;35.15;;;21.30;;
44606;SDS011;30315;46.072;14.474;2023-02-01T05:08:43;38.28;;;22.40;;
44606;SDS011;30315;46.072;14.474;2023-02-01T05:11:12;35.17;;;20.85;;
44606;SDS011;30315;46.072;14.474;2023-02-01T05:13:58;36.28;;;21.10;;
44606;SDS011;30315;46.072;14.474;2023-02-01T05:16:27;35.35;;;21.00;;
44606;SDS011;30315;46.072;14.474;2023-02-01T05:18:55;37.15;;;21.83;;
44606;SDS011;30315;46.072;14.474;2023-02-01T05:21:21;34.08;;;20.83;;
44606;SDS011;30315;46.072;14.474;2023-02-01T05:23:49;36.05;;;19.92;;
44606;SDS011;30315;46.072;14.474;2023-02-01T05:26:34;32.90;;;19.13;;
44606;SDS011;30315;46.072;14.474;2023-02-01T05:29:02;31.38;;;19.85;;
44606;SDS011;30315;46.072;14.474;2023-02-01T05:31:29;32.20;;;19.27;;
44606;SDS011;30315;46.072;14.474;2023-02-01T05:33:57;33.83;;;20.92;;
44606;SDS011;30315;46.072;14.474;2023-02-01T05:36:24;32.00;;;20.00;;
44606;SDS011;30315;46.072;14.474;2023-02-01T05:38:51;34.97;;;19.20;;
44606;SDS011;30315;46.072;14.474;2023-02-01T05:41:19;34.22;;;21.05;;
44606;SDS011;30315;46.072;14.474;2023-02-01T05:43:46;36.40;;;21.02;;
44606;SDS011;30315;46.072;14.474;2023-02-01T05:46:13;31.83;;;20.35;;
44606;SDS011;30315;46.072;14.474;2023-02-01T05:48:40;40.53;;;24.30;;
44606;SDS011;30315;46.072;14.474;2023-02-01T05:51:08;39.25;;;22.58;;
44606;SDS011;30315;46.072;14.474;2023-02-01T05:53:53;32.63;;;21.15;;
44606;SDS011;30315;46.072;14.474;2023-02-01T05:56:20;35.45;;;21.85;;
44606;SDS011;30315;46.072;14.474;2023-02-01T05:58:47;33.50;;;21.58;;
44606;SDS011;30315;46.072;14.474;2023-02-01T06:01:18;40.30;;;22.55;;
44606;SDS011;30315;46.072;14.474;2023-02-01T06:06:15;36.55;;;21.20;;
44606;SDS011;30315;46.072;14.474;2023-02-01T06:08:42;29.83;;;19.40;;
44606;SDS011;30315;46.072;14.474;2023-02-01T06:11:09;35.30;;;19.92;;
44606;SDS011;30315;46.072;14.474;2023-02-01T06:13:46;33.90;;;20.05;;
44606;SDS011;30315;46.072;14.474;2023-02-01T06:16:13;36.17;;;21.52;;
44606;SDS011;30315;46.072;14.474;2023-02-01T06:21:38;44.03;;;25.27;;
44606;SDS011;30315;46.072;14.474;2023-02-01T06:24:06;51.00;;;29.83;;
44606;SDS011;30315;46.072;14.474;2023-02-01T06:26:35;51.67;;;30.52;;
44606;SDS011;30315;46.072;14.474;2023-02-01T06:29:06;53.70;;;29.52;;
44606;SDS011;30315;46.072;14.474;2023-02-01T06:32:11;46.75;;;28.08;;
44606;SDS011;30315;46.072;14.474;2023-02-01T06:38:38;42.85;;;24.90;;
44606;SDS011;30315;46.072;14.474;2023-02-01T06:41:05;42.67;;;24.63;;
44606;SDS011;30315;46.072;14.474;2023-02-01T06:43:33;43.67;;;24.08;;
44606;SDS011;30315;46.072;14.474;2023-02-01T06:46:01;37.53;;;23.65;;
44606;SDS011;30315;46.072;14.474;2023-02-01T06:48:30;37.35;;;23.58;;
44606;SDS011;30315;46.072;14.474;2023-02-01T06:51:21;36.63;;;22.25;;
44606;SDS011;30315;46.072;14.474;2023-02-01T06:55:01;37.97;;;25.60;;
44606;SDS011;30315;46.072;14.474;2023-02-01T07:01:11;37.90;;;23.92;;
44606;SDS011;30315;46.072;14.474;2023-02-01T07:03:46;35.55;;;21.70;;
44606;SDS011;30315;46.072;14.474;2023-02-01T07:06:26;35.33;;;22.83;;
44606;SDS011;30315;46.072;14.474;2023-02-01T07:12:09;30.70;;;20.83;;
44606;SDS011;30315;46.072;14.474;2023-02-01T07:20:53;32.50;;;21.00;;
44606;SDS011;30315;46.072;14.474;2023-02-01T07:34:38;30.55;;;19.15;;
44606;SDS011;30315;46.072;14.474;2023-02-01T07:37:09;34.80;;;20.77;;
44606;SDS011;30315;46.072;14.474;2023-02-01T07:39:50;36.33;;;21.83;;
44606;SDS011;30315;46.072;14.474;2023-02-01T07:42:22;33.22;;;20.95;;
44606;SDS011;30315;46.072;14.474;2023-02-01T07:45:01;35.03;;;22.25;;
44606;SDS011;30315;46.072;14.474;2023-02-01T07:47:57;36.42;;;21.98;;
44606;SDS011;30315;46.072;14.474;2023-02-01T08:05:01;33.22;;;19.73;;
44606;SDS011;30315;46.072;14.474;2023-02-01T08:10:22;33.03;;;18.80;;
44606;SDS011;30315;46.072;14.474;2023-02-01T08:12:58;31.02;;;19.35;;
44606;SDS011;30315;46.072;14.474;2023-02-01T08:15:31;35.95;;;21.10;;
44606;SDS011;30315;46.072;14.474;2023-02-01T08:18:05;33.72;;;19.63;;
44606;SDS011;30315;46.072;14.474;2023-02-01T08:21:19;32.53;;;20.05;;
44606;SDS011;30315;46.072;14.474;2023-02-01T08:40:45;27.23;;;18.08;;
44606;SDS011;30315;46.072;14.474;2023-02-01T08:43:13;28.90;;;18.95;;
44606;SDS011;30315;46.072;14.474;2023-02-01T08:45:40;30.15;;;20.30;;
44606;SDS011;30315;46.072;14.474;2023-02-01T08:48:08;30.58;;;18.05;;
44606;SDS011;30315;46.072;14.474;2023-02-01T08:50:35;30.08;;;19.33;;
44606;SDS011;30315;46.072;14.474;2023-02-01T08:53:02;31.63;;;20.27;;
44606;SDS011;30315;46.072;14.474;2023-02-01T08:55:31;25.77;;;17.95;;
44606;SDS011;30315;46.072;14.474;2023-02-01T08:58:06;29.83;;;18.40;;
44606;SDS011;30315;46.072;14.474;2023-02-01T09:00:44;29.83;;;17.20;;
44606;SDS011;30315;46.072;14.474;2023-02-01T09:03:15;26.15;;;16.67;;
44606;SDS011;30315;46.072;14.474;2023-02-01T09:05:57;25.45;;;16.77;;
44606;SDS011;30315;46.072;14.474;2023-02-01T09:08:50;24.75;;;15.13;;
44606;SDS011;30315;46.072;14.474;2023-02-01T09:11:25;22.80;;;15.50;;
44606;SDS011;30315;46.072;14.474;2023-02-01T09:14:00;23.50;;;15.27;;
44606;SDS011;30315;46.072;14.474;2023-02-01T09:16:41;24.23;;;15.55;;
44606;SDS011;30315;46.072;14.474;2023-02-01T09:19:36;24.85;;;15.40;;
44606;SDS011;30315;46.072;14.474;2023-02-01T09:28:51;24.45;;;16.17;;
44606;SDS011;30315;46.072;14.474;2023-02-01T09:31:47;28.60;;;17.00;;
44606;SDS011;30315;46.072;14.474;2023-02-01T09:34:44;33.72;;;17.67;;
44606;SDS011;30315;46.072;14.474;2023-02-01T09:40:24;24.63;;;15.57;;
44606;SDS011;30315;46.072;14.474;2023-02-01T10:23:35;30.08;;;16.60;;
44606;SDS011;30315;46.072;14.474;2023-02-01T10:26:51;26.33;;;16.45;;
44606;SDS011;30315;46.072;14.474;2023-02-01T10:29:26;30.38;;;17.52;;
44606;SDS011;30315;46.072;14.474;2023-02-01T10:32:01;27.90;;;17.58;;
44606;SDS011;30315;46.072;14.474;2023-02-01T10:34:34;30.30;;;18.33;;
44606;SDS011;30315;46.072;14.474;2023-02-01T10:40:12;35.63;;;19.90;;
44606;SDS011;30315;46.072;14.474;2023-02-01T10:42:51;32.58;;;19.23;;
44606;SDS011;30315;46.072;14.474;2023-02-01T10:45:29;31.33;;;18.02;;
44606;SDS011;30315;46.072;14.474;2023-02-01T10:47:59;28.10;;;17.42;;
44606;SDS011;30315;46.072;14.474;2023-02-01T10:56:10;27.20;;;17.00;;
44606;SDS011;30315;46.072;14.474;2023-02-01T10:58:45;28.73;;;18.45;;
44606;SDS011;30315;46.072;14.474;2023-02-01T11:01:47;29.90;;;19.13;;
44606;SDS011;30315;46.072;14.474;2023-02-01T11:04:12;28.83;;;18.30;;
44606;SDS011;30315;46.072;14.474;2023-02-01T11:06:42;31.55;;;20.33;;
44606;SDS011;30315;46.072;14.474;2023-02-01T11:09:21;34.08;;;21.50;;
44606;SDS011;30315;46.072;14.474;2023-02-01T11:14:34;41.67;;;24.00;;
44606;SDS011;30315;46.072;14.474;2023-02-01T11:19:46;35.22;;;23.42;;
44606;SDS011;30315;46.072;14.474;2023-02-01T11:22:22;35.75;;;23.48;;
44606;SDS011;30315;46.072;14.474;2023-02-01T11:27:20;38.53;;;23.90;;
44606;SDS011;30315;46.072;14.474;2023-02-01T11:29:55;34.42;;;22.80;;
44606;SDS011;30315;46.072;14.474;2023-02-01T11:32:27;36.28;;;23.75;;
44606;SDS011;30315;46.072;14.474;2023-02-01T11:34:55;39.22;;;21.60;;
44606;SDS011;30315;46.072;14.474;2023-02-01T11:37:32;34.65;;;21.98;;
44606;SDS011;30315;46.072;14.474;2023-02-01T11:40:04;36.78;;;23.40;;
44606;SDS011;30315;46.072;14.474;2023-02-01T11:42:53;40.28;;;24.02;;
44606;SDS011;30315;46.072;14.474;2023-02-01T11:45:26;36.50;;;24.42;;
44606;SDS011;30315;46.072;14.474;2023-02-01T11:48:00;37.00;;;21.70;;
44606;SDS011;30315;46.072;14.474;2023-02-01T11:50:29;35.80;;;24.05;;
44606;SDS011;30315;46.072;14.474;2023-02-01T11:58:46;38.97;;;24.33;;
44606;SDS011;30315;46.072;14.474;2023-02-01T12:07:04;35.30;;;22.77;;
44606;SDS011;30315;46.072;14.474;2023-02-01T12:09:57;36.65;;;23.75;;
44606;SDS011;30315;46.072;14.474;2023-02-01T12:21:09;31.67;;;21.88;;
44606;SDS011;30315;46.072;14.474;2023-02-01T12:35:09;31.95;;;21.55;;
44606;SDS011;30315;46.072;14.474;2023-02-01T12:43:00;32.95;;;22.15;;
44606;SDS011;30315;46.072;14.474;2023-02-01T12:45:40;32.38;;;21.23;;
44606;SDS011;30315;46.072;14.474;2023-02-01T12:50:57;27.35;;;19.60;;
44606;SDS011;30315;46.072;14.474;2023-02-01T12:56:38;30.02;;;20.80;;
44606;SDS011;30315;46.072;14.474;2023-02-01T12:59:56;37.70;;;19.70;;
44606;SDS011;30315;46.072;14.474;2023-02-01T13:05:16;29.98;;;19.77;;
44606;SDS011;30315;46.072;14.474;2023-02-01T13:08:09;25.10;;;18.58;;
44606;SDS011;30315;46.072;14.474;2023-02-01T13:13:42;31.48;;;20.60;;
44606;SDS011;30315;46.072;14.474;2023-02-01T13:16:23;41.95;;;24.65;;
44606;SDS011;30315;46.072;14.474;2023-02-01T13:19:03;42.05;;;24.55;;
44606;SDS011;30315;46.072;14.474;2023-02-01T13:21:48;39.42;;;22.20;;
44606;SDS011;30315;46.072;14.474;2023-02-01T13:24:39;37.67;;;22.95;;
44606;SDS011;30315;46.072;14.474;2023-02-01T13:27:15;43.55;;;24.95;;
44606;SDS011;30315;46.072;14.474;2023-02-01T13:29:55;40.10;;;24.38;;
44606;SDS011;30315;46.072;14.474;2023-02-01T13:32:27;41.08;;;23.88;;
44606;SDS011;30315;46.072;14.474;2023-02-01T13:43:44;30.30;;;21.77;;
44606;SDS011;30315;46.072;14.474;2023-02-01T13:46:16;31.77;;;21.52;;
44606;SDS011;30315;46.072;14.474;2023-02-01T13:51:28;34.55;;;21.90;;
44606;SDS011;30315;46.072;14.474;2023-02-01T13:54:26;34.10;;;21.65;;
44606;SDS011;30315;46.072;14.474;2023-02-01T13:56:54;28.92;;;18.42;;
44606;SDS011;30315;46.072;14.474;2023-02-01T14:05:06;27.27;;;17.38;;
44606;SDS011;30315;46.072;14.474;2023-02-01T14:07:36;21.20;;;15.30;;
44606;SDS011;30315;46.072;14.474;2023-02-01T15:01:05;17.83;;;14.90;;
44606;SDS011;30315;46.072;14.474;2023-02-01T15:06:52;19.17;;;13.98;;
44606;SDS011;30315;46.072;14.474;2023-02-01T15:12:26;23.67;;;14.75;;
44606;SDS011;30315;46.072;14.474;2023-02-01T15:17:59;19.10;;;14.43;;
44606;SDS011;30315;46.072;14.474;2023-02-01T15:20:27;25.20;;;15.85;;
44606;SDS011;30315;46.072;14.474;2023-02-01T15:22:57;17.73;;;14.38;;
44606;SDS011;30315;46.072;14.474;2023-02-01T15:25:30;19.70;;;13.82;;
44606;SDS011;30315;46.072;14.474;2023-02-01T15:28:03;17.30;;;14.40;;
44606;SDS011;30315;46.072;14.474;2023-02-01T15:30:33;20.10;;;14.70;;
44606;SDS011;30315;46.072;14.474;2023-02-01T15:33:14;18.70;;;14.77;;
44606;SDS011;30315;46.072;14.474;2023-02-01T15:35:45;20.58;;;15.80;;
44606;SDS011;30315;46.072;14.474;2023-02-01T15:43:30;20.67;;;16.38;;
44606;SDS011;30315;46.072;14.474;2023-02-01T15:46:08;25.02;;;16.30;;
44606;SDS011;30315;46.072;14.474;2023-02-01T15:48:43;20.35;;;15.63;;
44606;SDS011;30315;46.072;14.474;2023-02-01T15:51:13;21.85;;;16.40;;
44606;SDS011;30315;46.072;14.474;2023-02-01T15:53:48;21.42;;;16.35;;
44606;SDS011;30315;46.072;14.474;2023-02-01T15:56:24;22.13;;;16.08;;
44606;SDS011;30315;46.072;14.474;2023-02-01T15:58:57;24.45;;;17.27;;
44606;SDS011;30315;46.072;14.474;2023-02-01T16:01:27;22.73;;;16.25;;
44606;SDS011;30315;46.072;14.474;2023-02-01T16:04:02;22.08;;;16.33;;
44606;SDS011;30315;46.072;14.474;2023-02-01T16:06:31;23.90;;;16.88;;
44606;SDS011;30315;46.072;14.474;2023-02-01T16:09:02;23.43;;;16.93;;
44606;SDS011;30315;46.072;14.474;2023-02-01T16:11:41;21.88;;;17.05;;
44606;SDS011;30315;46.072;14.474;2023-02-01T16:14:26;21.10;;;16.50;;
44606;SDS011;30315;46.072;14.474;2023-02-01T16:16:54;23.20;;;16.63;;
44606;SDS011;30315;46.072;14.474;2023-02-01T16:19:22;23.83;;;17.40;;
44606;SDS011;30315;46.072;14.474;2023-02-01T16:21:54;39.70;;;24.55;;
44606;SDS011;30315;46.072;14.474;2023-02-01T16:24:22;37.70;;;23.48;;
44606;SDS011;30315;46.072;14.474;2023-02-01T16:26:51;36.67;;;22.35;;
44606;SDS011;30315;46.072;14.474;2023-02-01T16:29:18;34.78;;;22.45;;
44606;SDS011;30315;46.072;14.474;2023-02-01T16:31:45;36.85;;;22.90;;
44606;SDS011;30315;46.072;14.474;2023-02-01T16:34:15;26.83;;;19.50;;
44606;SDS011;30315;46.072;14.474;2023-02-01T16:36:49;26.55;;;18.55;;
44606;SDS011;30315;46.072;14.474;2023-02-01T16:39:23;20.83;;;15.27;;
44606;SDS011;30315;46.072;14.474;2023-02-01T16:41:50;23.23;;;14.00;;
44606;SDS011;30315;46.072;14.474;2023-02-01T16:44:17;20.67;;;14.68;;
44606;SDS011;30315;46.072;14.474;2023-02-01T16:46:45;19.05;;;14.10;;
44606;SDS011;30315;46.072;14.474;2023-02-01T16:49:32;19.92;;;13.50;;
44606;SDS011;30315;46.072;14.474;2023-02-01T16:52:00;18.95;;;13.65;;
44606;SDS011;30315;46.072;14.474;2023-02-01T16:54:27;20.77;;;14.27;;
44606;SDS011;30315;46.072;14.474;2023-02-01T16:56:54;24.10;;;15.70;;
44606;SDS011;30315;46.072;14.474;2023-02-01T16:59:21;21.00;;;14.77;;
44606;SDS011;30315;46.072;14.474;2023-02-01T17:01:48;23.02;;;15.45;;
44606;SDS011;30315;46.072;14.474;2023-02-01T17:04:15;23.40;;;16.02;;
44606;SDS011;30315;46.072;14.474;2023-02-01T17:06:43;32.08;;;18.92;;
44606;SDS011;30315;46.072;14.474;2023-02-01T17:09:13;35.25;;;20.50;;
44606;SDS011;30315;46.072;14.474;2023-02-01T17:11:40;34.30;;;21.92;;
44606;SDS011;30315;46.072;14.474;2023-02-01T17:16:42;30.35;;;20.15;;
44606;SDS011;30315;46.072;14.474;2023-02-01T17:19:14;30.88;;;20.23;;
44606;SDS011;30315;46.072;14.474;2023-02-01T17:21:50;32.55;;;21.50;;
44606;SDS011;30315;46.072;14.474;2023-02-01T17:24:22;30.45;;;21.52;;
44606;SDS011;30315;46.072;14.474;2023-02-01T17:26:54;32.45;;;20.90;;
44606;SDS011;30315;46.072;14.474;2023-02-01T17:29:21;31.98;;;22.15;;
44606;SDS011;30315;46.072;14.474;2023-02-01T17:31:51;37.53;;;23.73;;
44606;SDS011;30315;46.072;14.474;2023-02-01T17:34:20;38.30;;;25.25;;
44606;SDS011;30315;46.072;14.474;2023-02-01T17:36:48;41.17;;;25.52;;
44606;SDS011;30315;46.072;14.474;2023-02-01T17:39:15;44.40;;;26.98;;
44606;SDS011;30315;46.072;14.474;2023-02-01T17:42:02;47.85;;;29.73;;
44606;SDS011;30315;46.072;14.474;2023-02-01T17:44:30;50.83;;;30.90;;
44606;SDS011;30315;46.072;14.474;2023-02-01T17:46:58;55.13;;;31.90;;
44606;SDS011;30315;46.072;14.474;2023-02-01T17:49:25;58.88;;;35.13;;
44606;SDS011;30315;46.072;14.474;2023-02-01T17:51:54;62.33;;;36.87;;
44606;SDS011;30315;46.072;14.474;2023-02-01T17:54:22;60.40;;;37.17;;
44606;SDS011;30315;46.072;14.474;2023-02-01T17:56:51;57.42;;;33.50;;
44606;SDS011;30315;46.072;14.474;2023-02-01T17:59:18;51.70;;;32.22;;
44606;SDS011;30315;46.072;14.474;2023-02-01T18:01:48;49.35;;;30.75;;
44606;SDS011;30315;46.072;14.474;2023-02-01T18:04:17;48.65;;;29.80;;
44606;SDS011;30315;46.072;14.474;2023-02-01T18:06:45;50.47;;;31.00;;
44606;SDS011;30315;46.072;14.474;2023-02-01T18:09:12;49.55;;;32.70;;
44606;SDS011;30315;46.072;14.474;2023-02-01T18:11:39;56.20;;;31.90;;
44606;SDS011;30315;46.072;14.474;2023-02-01T18:14:08;51.28;;;32.13;;
44606;SDS011;30315;46.072;14.474;2023-02-01T18:16:37;56.92;;;33.75;;
44606;SDS011;30315;46.072;14.474;2023-02-01T18:19:05;51.80;;;31.60;;
44606;SDS011;30315;46.072;14.474;2023-02-01T18:21:42;53.35;;;33.55;;
44606;SDS011;30315;46.072;14.474;2023-02-01T18:24:13;51.28;;;32.28;;
44606;SDS011;30315;46.072;14.474;2023-02-01T18:26:41;54.78;;;33.95;;
44606;SDS011;30315;46.072;14.474;2023-02-01T18:29:09;51.75;;;34.25;;
44606;SDS011;30315;46.072;14.474;2023-02-01T18:31:43;51.20;;;32.40;;
44606;SDS011;30315;46.072;14.474;2023-02-01T18:34:11;48.78;;;31.33;;
44606;SDS011;30315;46.072;14.474;2023-02-01T18:36:49;47.33;;;30.35;;
44606;SDS011;30315;46.072;14.474;2023-02-01T18:39:16;48.90;;;30.33;;
44606;SDS011;30315;46.072;14.474;2023-02-01T18:41:44;46.63;;;31.45;;
44606;SDS011;30315;46.072;14.474;2023-02-01T18:44:14;51.88;;;31.17;;
44606;SDS011;30315;46.072;14.474;2023-02-01T18:46:42;48.20;;;30.15;;
44606;SDS011;30315;46.072;14.474;2023-02-01T18:49:09;46.70;;;29.70;;
44606;SDS011;30315;46.072;14.474;2023-02-01T18:51:39;48.80;;;32.10;;
44606;SDS011;30315;46.072;14.474;2023-02-01T18:54:08;50.33;;;31.45;;
44606;SDS011;30315;46.072;14.474;2023-02-01T18:56:37;58.00;;;34.70;;
44606;SDS011;30315;46.072;14.474;2023-02-01T18:59:05;57.22;;;36.15;;
44606;SDS011;30315;46.072;14.474;2023-02-01T19:01:32;64.88;;;37.55;;
44606;SDS011;30315;46.072;14.474;2023-02-01T19:03:59;58.28;;;38.55;;
44606;SDS011;30315;46.072;14.474;2023-02-01T19:06:40;67.05;;;42.03;;
44606;SDS011;30315;46.072;14.474;2023-02-01T19:09:07;65.25;;;38.35;;
44606;SDS011;30315;46.072;14.474;2023-02-01T19:11:34;58.42;;;38.67;;
44606;SDS011;30315;46.072;14.474;2023-02-01T19:14:00;54.33;;;36.50;;
44606;SDS011;30315;46.072;14.474;2023-02-01T19:16:27;59.92;;;35.35;;
44606;SDS011;30315;46.072;14.474;2023-02-01T19:18:54;63.70;;;38.75;;
44606;SDS011;30315;46.072;14.474;2023-02-01T19:21:22;66.47;;;40.42;;
44606;SDS011;30315;46.072;14.474;2023-02-01T19:23:49;62.85;;;38.33;;
44606;SDS011;30315;46.072;14.474;2023-02-01T19:26:16;61.00;;;38.72;;
44606;SDS011;30315;46.072;14.474;2023-02-01T19:28:51;67.72;;;42.05;;
44606;SDS011;30315;46.072;14.474;2023-02-01T19:31:19;73.55;;;45.53;;
44606;SDS011;30315;46.072;14.474;2023-02-01T19:33:46;73.30;;;47.00;;
44606;SDS011;30315;46.072;14.474;2023-02-01T19:36:13;69.30;;;45.45;;
44606;SDS011;30315;46.072;14.474;2023-02-01T19:38:40;70.80;;;46.60;;
44606;SDS011;30315;46.072;14.474;2023-02-01T19:41:07;75.25;;;45.85;;
44606;SDS011;30315;46.072;14.474;2023-02-01T19:43:37;73.57;;;46.90;;
44606;SDS011;30315;46.072;14.474;2023-02-01T19:46:05;78.95;;;47.30;;
44606;SDS011;30315;46.072;14.474;2023-02-01T19:48:32;78.13;;;47.58;;
44606;SDS011;30315;46.072;14.474;2023-02-01T19:51:00;78.10;;;46.95;;